Gabes, Gabes Matmata International Airport (DTTG)

NameGabes Matmata International Airport
CityGabes
CountryTunisia
ICAODTTG
IATAGAE
Altitude8 m
CoordinatesGoogle Map
Live Air TrafficLiveATC.net
METARDTTG 251900Z 22007KT CAVOK 18/05 Q1016 NOSIG
2019-03-25 19:00:00 Wind: South-Southwest (220°) 3.6 m/s - Visibility: > 10000 m - Weather: CAVOK - Temperature: 18 °C - Dew point: 5 °C - Humidity: 42.5% - Pressure: 1016 hPa

Sorry, no flights used the airport in this database.